Photo de Laille
https://tgftp.nws.noaa.gov/data/observations/metar/stations/LFRN.TXT2021/04/19 12:00 LFRN 191200Z AUTO 15006KT 080V240 CAVOK 16/04 Q1019 NOSIG
Rennes
Ciel dégagé
Metar : 2021/04/19 12:00 LFRN 191200Z AUTO 15006KT 080V240 CAVOK 16/04 Q1019 NOSIG
Couverture nuageuse :
Pression de 30.09 inHg (1019 hPa)
Humidité : 45%
Température : 61°F (16°C)
Vent de SSE at 7 mph (11 km/h)
Visibilité : greater than 7 miles (10 km)
Nantes
Ciel dégagé
Metar : 2021/04/19 16:30 LFRS 191630Z AUTO 29008KT 260V340 CAVOK 17/05 Q1017 NOSIG
Couverture nuageuse :
Traduc : Partly cloudy 700 ft
Pression de 30.03 inHg (1017 hPa)
Humidité : 45%
Température : 63°F (17°C)
Point de rosée : 41°F (5°C)
Vent de WNW at 9 mph (15 km/h)
Visibilité : greater than 7 miles (10 km)
Lannion
Ciel dégagé
Metar : 2021/04/19 12:00 LFRO 191200Z AUTO 02008KT 350V080 CAVOK 14/05 Q1020
Couverture nuageuse :
Traduc : Partly cloudy 700 ft
Pression de 30.12 inHg (1020 hPa)
Humidité : 55%
Température : 57°F (14°C)
Point de rosée : 41°F (5°C)
Vent de NNE at 9 mph (15 km/h)
Visibilité : greater than 7 miles (10 km)
Dinard
Ciel dégagé
Metar : 2021/04/19 16:30 LFRD 191630Z AUTO 04007KT CAVOK 15/06 Q1018 NOSIG
Couverture nuageuse :
Traduc : Partly cloudy 700 ft
Pression de 30.06 inHg (1018 hPa)
Humidité : 55%
Température : 59°F (15°C)
Point de rosée : 43°F (6°C)
Vent de NE at 8 mph (13 km/h)
Visibilité : greater than 7 miles (10 km)
Brest
nuageux
Metar : 2021/04/19 16:30 LFRB 191630Z AUTO 36006KT 320V040 9999 FEW038 BKN120 13/05 Q1018 NOSIG
Couverture nuageuse : Few Clouds 3800 ft Mostly Cloudy 12000 ft
Traduc : Partly cloudy 700 ft
Pression de 30.06 inHg (1018 hPa)
Humidité : 59%
Température : 55°F (13°C)
Point de rosée : 41°F (5°C)
Vent de N at 7 mph (11 km/h)
Visibilité : 6 miles (10 km)
Quimper
Ciel dégagé
Metar : 2021/04/19 12:00 LFRQ 191200Z AUTO 16006KT 120V210 CAVOK 15/04 Q1020 NOSIG
Couverture nuageuse :
Traduc : Partly cloudy 700 ft
Pression de 30.12 inHg (1020 hPa)
Humidité : 48%
Température : 59°F (15°C)
Point de rosée : 39°F (4°C)
Vent de SSE at 7 mph (11 km/h)
Visibilité : greater than 7 miles (10 km)
St Nazaire
Ciel dégagé
Metar : 2021/04/19 12:00 LFRZ 191200Z AUTO 22009KT 170V240 CAVOK 16/02 Q1019 NOSIG
Couverture nuageuse :
Traduc : Partly cloudy 700 ft
Pression de 30.09 inHg (1019 hPa)
Humidité : 39%
Température : 61°F (16°C)
Point de rosée : 36°F (2°C)
Vent de SW at 10 mph (17 km/h)
Visibilité : greater than 7 miles (10 km)
St Brieuc
Ciel dégagé
Metar : 2021/04/19 12:00 LFRT 191200Z AUTO 03009KT CAVOK 14/07 Q1019
Couverture nuageuse :
Traduc : Partly cloudy 700 ft
Pression de 30.09 inHg (1019 hPa)
Humidité : 63%
Température : 57°F (14°C)
Point de rosée : 45°F (7°C)
Vent de NNE at 10 mph (17 km/h)
Visibilité : greater than 7 miles (10 km)
Lorient
Ciel dégagé
Metar : 2021/04/19 14:30 LFRH 191430Z AUTO 23008KT CAVOK 14/02 Q1019 NOSIG
Couverture nuageuse :
Traduc : Partly cloudy 700 ft
Pression de 30.09 inHg (1019 hPa)
Humidité : 44%
Température : 57°F (14°C)
Point de rosée : 36°F (2°C)
Vent de SW at 9 mph (15 km/h)
Visibilité : greater than 7 miles (10 km)
Vannes-Meucon
Ciel dégagé
Metar : 2021/04/19 12:00 LFRV 191200Z AUTO 17007KT 140V210 CAVOK 15/03 Q1019
Couverture nuageuse :
Traduc : Partly cloudy 700 ft
Pression de 30.09 inHg (1019 hPa)
Humidité : 45%
Température : 59°F (15°C)
Point de rosée : 37°F (3°C)
Vent de S at 8 mph (13 km/h)
Visibilité : greater than 7 miles (10 km)

 


   Weather Underground PWS IBRETAGN39      Weather Underground PWS IBRETAGN39Retour Météo-Laillé adhérent de Météo-Bretagne et d'Infoclimat. Données mises à jour en temps réel via Météolink Climatologie réalisée sous Wswin et GraphWeather.

Affichage prévisions météo de WeatherUnderground via script PHP de Saratoga.

Copyright 2012-2021


compteur